sensor_id;sensor_type;location;lat;lon;timestamp;P1;durP1;ratioP1;P2;durP2;ratioP2
19111;SDS011;9688;51.906;8.376;2023-12-28T00:02:22;2.73;;;1.87;;
19111;SDS011;9688;51.906;8.376;2023-12-28T00:05:08;2.53;;;1.60;;
19111;SDS011;9688;51.906;8.376;2023-12-28T00:07:55;3.13;;;1.50;;
19111;SDS011;9688;51.906;8.376;2023-12-28T00:10:42;3.17;;;1.77;;
19111;SDS011;9688;51.906;8.376;2023-12-28T00:13:28;1.83;;;1.73;;
19111;SDS011;9688;51.906;8.376;2023-12-28T00:16:14;2.70;;;1.70;;
19111;SDS011;9688;51.906;8.376;2023-12-28T00:19:00;3.73;;;1.77;;
19111;SDS011;9688;51.906;8.376;2023-12-28T00:21:47;3.53;;;1.70;;
19111;SDS011;9688;51.906;8.376;2023-12-28T00:24:34;3.83;;;1.77;;
19111;SDS011;9688;51.906;8.376;2023-12-28T00:27:20;1.80;;;1.70;;
19111;SDS011;9688;51.906;8.376;2023-12-28T00:30:06;2.27;;;2.00;;
19111;SDS011;9688;51.906;8.376;2023-12-28T00:32:53;3.40;;;2.10;;
19111;SDS011;9688;51.906;8.376;2023-12-28T00:35:39;2.23;;;1.70;;
19111;SDS011;9688;51.906;8.376;2023-12-28T00:38:25;5.43;;;1.60;;
19111;SDS011;9688;51.906;8.376;2023-12-28T00:41:12;2.10;;;1.90;;
19111;SDS011;9688;51.906;8.376;2023-12-28T00:43:58;1.83;;;1.73;;
19111;SDS011;9688;51.906;8.376;2023-12-28T00:46:44;2.00;;;1.90;;
19111;SDS011;9688;51.906;8.376;2023-12-28T00:49:30;2.07;;;1.97;;
19111;SDS011;9688;51.906;8.376;2023-12-28T00:52:16;1.80;;;1.70;;
19111;SDS011;9688;51.906;8.376;2023-12-28T00:55:02;1.83;;;1.70;;
19111;SDS011;9688;51.906;8.376;2023-12-28T00:57:51;3.90;;;2.50;;
19111;SDS011;9688;51.906;8.376;2023-12-28T01:00:37;3.23;;;1.70;;
19111;SDS011;9688;51.906;8.376;2023-12-28T01:03:23;1.90;;;1.80;;
19111;SDS011;9688;51.906;8.376;2023-12-28T01:06:08;1.73;;;1.63;;
19111;SDS011;9688;51.906;8.376;2023-12-28T01:08:54;2.53;;;1.70;;
19111;SDS011;9688;51.906;8.376;2023-12-28T01:11:40;5.30;;;1.83;;
19111;SDS011;9688;51.906;8.376;2023-12-28T01:14:28;3.10;;;1.90;;
19111;SDS011;9688;51.906;8.376;2023-12-28T01:17:13;2.60;;;2.00;;
19111;SDS011;9688;51.906;8.376;2023-12-28T01:19:59;5.40;;;1.80;;
19111;SDS011;9688;51.906;8.376;2023-12-28T01:22:45;2.00;;;1.90;;
19111;SDS011;9688;51.906;8.376;2023-12-28T01:25:30;2.63;;;1.90;;
19111;SDS011;9688;51.906;8.376;2023-12-28T01:28:16;2.33;;;1.80;;
19111;SDS011;9688;51.906;8.376;2023-12-28T01:31:04;2.03;;;1.80;;
19111;SDS011;9688;51.906;8.376;2023-12-28T01:33:50;2.13;;;1.90;;
19111;SDS011;9688;51.906;8.376;2023-12-28T01:36:35;2.77;;;1.90;;
19111;SDS011;9688;51.906;8.376;2023-12-28T01:39:25;2.03;;;1.83;;
19111;SDS011;9688;51.906;8.376;2023-12-28T01:42:11;2.50;;;1.90;;
19111;SDS011;9688;51.906;8.376;2023-12-28T01:44:57;1.80;;;1.70;;
19111;SDS011;9688;51.906;8.376;2023-12-28T01:47:44;3.37;;;2.00;;
19111;SDS011;9688;51.906;8.376;2023-12-28T01:50:32;2.47;;;2.00;;
19111;SDS011;9688;51.906;8.376;2023-12-28T01:53:18;3.33;;;2.07;;
19111;SDS011;9688;51.906;8.376;2023-12-28T01:56:04;3.27;;;2.03;;
19111;SDS011;9688;51.906;8.376;2023-12-28T01:58:51;2.10;;;1.90;;
19111;SDS011;9688;51.906;8.376;2023-12-28T02:01:38;2.23;;;2.03;;
19111;SDS011;9688;51.906;8.376;2023-12-28T02:04:25;1.80;;;1.70;;
19111;SDS011;9688;51.906;8.376;2023-12-28T02:07:12;2.90;;;2.20;;
19111;SDS011;9688;51.906;8.376;2023-12-28T02:09:58;2.40;;;2.20;;
19111;SDS011;9688;51.906;8.376;2023-12-28T02:12:44;3.03;;;2.10;;
19111;SDS011;9688;51.906;8.376;2023-12-28T02:15:31;2.00;;;1.80;;
19111;SDS011;9688;51.906;8.376;2023-12-28T02:18:18;2.27;;;1.60;;
19111;SDS011;9688;51.906;8.376;2023-12-28T02:21:08;2.90;;;1.97;;
19111;SDS011;9688;51.906;8.376;2023-12-28T02:23:54;2.97;;;2.13;;
19111;SDS011;9688;51.906;8.376;2023-12-28T02:26:41;2.17;;;1.77;;
19111;SDS011;9688;51.906;8.376;2023-12-28T02:29:27;2.10;;;2.00;;
19111;SDS011;9688;51.906;8.376;2023-12-28T02:32:13;2.27;;;2.07;;
19111;SDS011;9688;51.906;8.376;2023-12-28T02:35:04;3.80;;;1.87;;
19111;SDS011;9688;51.906;8.376;2023-12-28T02:37:58;2.40;;;2.20;;
19111;SDS011;9688;51.906;8.376;2023-12-28T02:40:46;3.40;;;2.20;;
19111;SDS011;9688;51.906;8.376;2023-12-28T02:43:35;3.50;;;2.00;;
19111;SDS011;9688;51.906;8.376;2023-12-28T02:46:21;3.90;;;2.00;;
19111;SDS011;9688;51.906;8.376;2023-12-28T02:49:06;4.13;;;2.07;;
19111;SDS011;9688;51.906;8.376;2023-12-28T02:51:54;2.00;;;1.90;;
19111;SDS011;9688;51.906;8.376;2023-12-28T02:54:40;2.20;;;2.00;;
19111;SDS011;9688;51.906;8.376;2023-12-28T02:57:26;3.33;;;1.97;;
19111;SDS011;9688;51.906;8.376;2023-12-28T03:00:14;4.63;;;2.13;;
19111;SDS011;9688;51.906;8.376;2023-12-28T03:03:00;2.40;;;2.20;;
19111;SDS011;9688;51.906;8.376;2023-12-28T03:05:45;3.00;;;2.43;;
19111;SDS011;9688;51.906;8.376;2023-12-28T03:08:31;2.60;;;2.10;;
19111;SDS011;9688;51.906;8.376;2023-12-28T03:11:17;4.13;;;2.33;;
19111;SDS011;9688;51.906;8.376;2023-12-28T03:14:04;4.83;;;2.10;;
19111;SDS011;9688;51.906;8.376;2023-12-28T03:16:51;3.23;;;2.90;;
19111;SDS011;9688;51.906;8.376;2023-12-28T03:19:37;2.43;;;2.20;;
19111;SDS011;9688;51.906;8.376;2023-12-28T03:22:23;3.97;;;2.50;;
19111;SDS011;9688;51.906;8.376;2023-12-28T03:25:09;2.87;;;2.10;;
19111;SDS011;9688;51.906;8.376;2023-12-28T03:27:54;2.60;;;2.40;;
19111;SDS011;9688;51.906;8.376;2023-12-28T03:30:40;3.47;;;2.27;;
19111;SDS011;9688;51.906;8.376;2023-12-28T03:33:27;3.07;;;1.90;;
19111;SDS011;9688;51.906;8.376;2023-12-28T03:36:17;2.10;;;1.90;;
19111;SDS011;9688;51.906;8.376;2023-12-28T03:39:03;3.03;;;2.20;;
19111;SDS011;9688;51.906;8.376;2023-12-28T03:41:49;3.77;;;1.93;;
19111;SDS011;9688;51.906;8.376;2023-12-28T03:44:36;2.20;;;2.00;;
19111;SDS011;9688;51.906;8.376;2023-12-28T03:47:22;3.27;;;2.20;;
19111;SDS011;9688;51.906;8.376;2023-12-28T03:50:10;2.17;;;2.00;;
19111;SDS011;9688;51.906;8.376;2023-12-28T03:52:55;2.30;;;2.20;;
19111;SDS011;9688;51.906;8.376;2023-12-28T03:55:42;2.10;;;1.90;;
19111;SDS011;9688;51.906;8.376;2023-12-28T03:58:28;2.80;;;2.00;;
19111;SDS011;9688;51.906;8.376;2023-12-28T04:01:13;2.40;;;1.93;;
19111;SDS011;9688;51.906;8.376;2023-12-28T04:03:59;2.33;;;1.87;;
19111;SDS011;9688;51.906;8.376;2023-12-28T04:06:46;2.70;;;1.83;;
19111;SDS011;9688;51.906;8.376;2023-12-28T04:09:32;1.90;;;1.80;;
19111;SDS011;9688;51.906;8.376;2023-12-28T04:12:18;4.47;;;2.17;;
19111;SDS011;9688;51.906;8.376;2023-12-28T04:15:04;2.17;;;1.90;;
19111;SDS011;9688;51.906;8.376;2023-12-28T04:17:50;2.00;;;1.90;;
19111;SDS011;9688;51.906;8.376;2023-12-28T04:20:36;1.90;;;1.80;;
19111;SDS011;9688;51.906;8.376;2023-12-28T04:23:23;3.60;;;1.87;;
19111;SDS011;9688;51.906;8.376;2023-12-28T04:26:09;2.67;;;2.47;;
19111;SDS011;9688;51.906;8.376;2023-12-28T04:28:55;5.73;;;1.97;;
19111;SDS011;9688;51.906;8.376;2023-12-28T04:31:40;3.90;;;2.80;;
19111;SDS011;9688;51.906;8.376;2023-12-28T04:34:27;2.30;;;2.10;;
19111;SDS011;9688;51.906;8.376;2023-12-28T04:37:12;2.37;;;2.00;;
19111;SDS011;9688;51.906;8.376;2023-12-28T04:40:00;3.63;;;1.90;;
19111;SDS011;9688;51.906;8.376;2023-12-28T04:42:47;3.23;;;1.93;;
19111;SDS011;9688;51.906;8.376;2023-12-28T04:45:32;2.20;;;2.00;;
19111;SDS011;9688;51.906;8.376;2023-12-28T04:48:18;1.90;;;1.70;;
19111;SDS011;9688;51.906;8.376;2023-12-28T04:51:05;2.67;;;1.83;;
19111;SDS011;9688;51.906;8.376;2023-12-28T04:53:51;2.90;;;2.27;;
19111;SDS011;9688;51.906;8.376;2023-12-28T04:56:38;2.87;;;1.90;;
19111;SDS011;9688;51.906;8.376;2023-12-28T04:59:24;5.30;;;2.00;;
19111;SDS011;9688;51.906;8.376;2023-12-28T05:02:09;1.83;;;1.73;;
19111;SDS011;9688;51.906;8.376;2023-12-28T05:04:55;3.43;;;1.90;;
19111;SDS011;9688;51.906;8.376;2023-12-28T05:07:41;2.23;;;1.67;;
19111;SDS011;9688;51.906;8.376;2023-12-28T05:10:27;3.33;;;1.50;;
19111;SDS011;9688;51.906;8.376;2023-12-28T05:13:14;2.00;;;1.90;;
19111;SDS011;9688;51.906;8.376;2023-12-28T05:16:00;1.73;;;1.63;;
19111;SDS011;9688;51.906;8.376;2023-12-28T05:18:46;2.97;;;1.60;;
19111;SDS011;9688;51.906;8.376;2023-12-28T05:21:32;2.20;;;1.73;;
19111;SDS011;9688;51.906;8.376;2023-12-28T05:24:18;1.70;;;1.60;;
19111;SDS011;9688;51.906;8.376;2023-12-28T05:27:04;2.13;;;1.87;;
19111;SDS011;9688;51.906;8.376;2023-12-28T05:29:52;3.63;;;1.70;;
19111;SDS011;9688;51.906;8.376;2023-12-28T05:32:37;1.30;;;1.20;;
19111;SDS011;9688;51.906;8.376;2023-12-28T05:35:23;2.93;;;1.50;;
19111;SDS011;9688;51.906;8.376;2023-12-28T05:38:09;1.87;;;1.70;;
19111;SDS011;9688;51.906;8.376;2023-12-28T05:40:55;1.40;;;1.40;;
19111;SDS011;9688;51.906;8.376;2023-12-28T05:43:41;2.03;;;1.50;;
19111;SDS011;9688;51.906;8.376;2023-12-28T05:46:28;2.80;;;1.53;;
19111;SDS011;9688;51.906;8.376;2023-12-28T05:49:13;2.50;;;1.80;;
19111;SDS011;9688;51.906;8.376;2023-12-28T05:51:59;2.90;;;1.50;;
19111;SDS011;9688;51.906;8.376;2023-12-28T05:54:45;1.83;;;1.73;;
19111;SDS011;9688;51.906;8.376;2023-12-28T05:57:32;1.30;;;1.30;;
19111;SDS011;9688;51.906;8.376;2023-12-28T06:00:17;1.93;;;1.83;;
19111;SDS011;9688;51.906;8.376;2023-12-28T06:03:05;3.80;;;1.77;;
19111;SDS011;9688;51.906;8.376;2023-12-28T06:05:50;3.10;;;1.67;;
19111;SDS011;9688;51.906;8.376;2023-12-28T06:08:36;1.70;;;1.60;;
19111;SDS011;9688;51.906;8.376;2023-12-28T06:11:22;3.37;;;1.50;;
19111;SDS011;9688;51.906;8.376;2023-12-28T06:14:08;3.53;;;1.60;;
19111;SDS011;9688;51.906;8.376;2023-12-28T06:16:54;1.67;;;1.40;;
19111;SDS011;9688;51.906;8.376;2023-12-28T06:19:41;2.43;;;1.70;;
19111;SDS011;9688;51.906;8.376;2023-12-28T06:22:27;3.67;;;1.50;;
19111;SDS011;9688;51.906;8.376;2023-12-28T06:25:13;2.83;;;1.53;;
19111;SDS011;9688;51.906;8.376;2023-12-28T06:27:59;3.13;;;1.50;;
19111;SDS011;9688;51.906;8.376;2023-12-28T06:30:45;1.80;;;1.40;;
19111;SDS011;9688;51.906;8.376;2023-12-28T06:33:31;1.83;;;1.60;;
19111;SDS011;9688;51.906;8.376;2023-12-28T06:36:18;3.93;;;1.93;;
19111;SDS011;9688;51.906;8.376;2023-12-28T06:39:04;2.07;;;1.60;;
19111;SDS011;9688;51.906;8.376;2023-12-28T06:41:50;1.80;;;1.50;;
19111;SDS011;9688;51.906;8.376;2023-12-28T06:44:36;4.00;;;1.50;;
19111;SDS011;9688;51.906;8.376;2023-12-28T06:47:21;3.13;;;1.80;;
19111;SDS011;9688;51.906;8.376;2023-12-28T06:50:08;2.83;;;1.63;;
19111;SDS011;9688;51.906;8.376;2023-12-28T06:52:55;2.50;;;1.60;;
19111;SDS011;9688;51.906;8.376;2023-12-28T06:55:41;4.20;;;1.50;;
19111;SDS011;9688;51.906;8.376;2023-12-28T06:58:27;2.50;;;1.50;;
19111;SDS011;9688;51.906;8.376;2023-12-28T07:01:13;1.63;;;1.53;;
19111;SDS011;9688;51.906;8.376;2023-12-28T07:03:59;3.50;;;1.50;;
19111;SDS011;9688;51.906;8.376;2023-12-28T07:06:45;3.03;;;1.70;;
19111;SDS011;9688;51.906;8.376;2023-12-28T07:09:32;3.43;;;1.87;;
19111;SDS011;9688;51.906;8.376;2023-12-28T07:12:17;2.07;;;1.63;;
19111;SDS011;9688;51.906;8.376;2023-12-28T07:15:05;1.70;;;1.60;;
19111;SDS011;9688;51.906;8.376;2023-12-28T07:17:51;1.93;;;1.60;;
19111;SDS011;9688;51.906;8.376;2023-12-28T07:20:37;1.83;;;1.50;;
19111;SDS011;9688;51.906;8.376;2023-12-28T07:23:23;1.93;;;1.60;;
19111;SDS011;9688;51.906;8.376;2023-12-28T07:26:10;2.07;;;1.60;;
19111;SDS011;9688;51.906;8.376;2023-12-28T07:28:55;2.67;;;1.73;;
19111;SDS011;9688;51.906;8.376;2023-12-28T07:31:41;1.73;;;1.63;;
19111;SDS011;9688;51.906;8.376;2023-12-28T07:34:27;3.13;;;1.60;;
19111;SDS011;9688;51.906;8.376;2023-12-28T07:37:12;2.30;;;1.60;;
19111;SDS011;9688;51.906;8.376;2023-12-28T07:39:59;2.87;;;1.50;;
19111;SDS011;9688;51.906;8.376;2023-12-28T07:42:45;2.77;;;1.60;;
19111;SDS011;9688;51.906;8.376;2023-12-28T07:45:32;2.13;;;1.60;;
19111;SDS011;9688;51.906;8.376;2023-12-28T07:48:18;2.73;;;1.60;;
19111;SDS011;9688;51.906;8.376;2023-12-28T07:51:04;4.60;;;1.60;;
19111;SDS011;9688;51.906;8.376;2023-12-28T07:53:50;1.87;;;1.77;;
19111;SDS011;9688;51.906;8.376;2023-12-28T07:56:36;2.07;;;1.60;;
19111;SDS011;9688;51.906;8.376;2023-12-28T07:59:23;2.37;;;1.87;;
19111;SDS011;9688;51.906;8.376;2023-12-28T08:02:09;3.00;;;1.73;;
19111;SDS011;9688;51.906;8.376;2023-12-28T08:04:55;4.30;;;1.73;;
19111;SDS011;9688;51.906;8.376;2023-12-28T08:07:41;1.90;;;1.50;;
19111;SDS011;9688;51.906;8.376;2023-12-28T08:10:27;2.50;;;1.63;;
19111;SDS011;9688;51.906;8.376;2023-12-28T08:13:12;4.10;;;1.60;;
19111;SDS011;9688;51.906;8.376;2023-12-28T08:16:00;3.23;;;1.90;;
19111;SDS011;9688;51.906;8.376;2023-12-28T08:18:47;1.83;;;1.73;;
19111;SDS011;9688;51.906;8.376;2023-12-28T08:21:33;2.90;;;1.97;;
19111;SDS011;9688;51.906;8.376;2023-12-28T08:24:18;2.10;;;1.83;;
19111;SDS011;9688;51.906;8.376;2023-12-28T08:27:04;3.23;;;1.90;;
19111;SDS011;9688;51.906;8.376;2023-12-28T08:29:50;2.60;;;1.90;;
19111;SDS011;9688;51.906;8.376;2023-12-28T08:32:38;4.50;;;2.00;;
19111;SDS011;9688;51.906;8.376;2023-12-28T08:35:24;2.57;;;1.80;;
19111;SDS011;9688;51.906;8.376;2023-12-28T08:38:10;2.30;;;1.97;;
19111;SDS011;9688;51.906;8.376;2023-12-28T08:40:56;5.20;;;2.00;;
19111;SDS011;9688;51.906;8.376;2023-12-28T08:43:42;4.30;;;1.83;;
19111;SDS011;9688;51.906;8.376;2023-12-28T08:46:28;3.80;;;1.67;;
19111;SDS011;9688;51.906;8.376;2023-12-28T08:49:15;2.53;;;1.50;;
19111;SDS011;9688;51.906;8.376;2023-12-28T08:52:01;3.07;;;2.00;;
19111;SDS011;9688;51.906;8.376;2023-12-28T08:54:47;4.70;;;1.77;;
19111;SDS011;9688;51.906;8.376;2023-12-28T08:57:33;3.47;;;1.93;;
19111;SDS011;9688;51.906;8.376;2023-12-28T09:00:19;5.23;;;1.90;;
19111;SDS011;9688;51.906;8.376;2023-12-28T09:03:05;2.90;;;2.00;;
19111;SDS011;9688;51.906;8.376;2023-12-28T09:05:53;4.07;;;1.80;;
19111;SDS011;9688;51.906;8.376;2023-12-28T09:08:41;7.23;;;1.80;;
19111;SDS011;9688;51.906;8.376;2023-12-28T09:11:27;4.27;;;2.33;;
19111;SDS011;9688;51.906;8.376;2023-12-28T09:14:13;2.03;;;1.93;;
19111;SDS011;9688;51.906;8.376;2023-12-28T09:16:59;4.23;;;2.07;;
19111;SDS011;9688;51.906;8.376;2023-12-28T09:19:45;5.63;;;2.40;;
19111;SDS011;9688;51.906;8.376;2023-12-28T09:22:33;5.37;;;2.07;;
19111;SDS011;9688;51.906;8.376;2023-12-28T09:25:19;4.07;;;1.73;;
19111;SDS011;9688;51.906;8.376;2023-12-28T09:28:05;3.87;;;2.10;;
19111;SDS011;9688;51.906;8.376;2023-12-28T09:30:51;2.27;;;2.00;;
19111;SDS011;9688;51.906;8.376;2023-12-28T09:33:37;3.33;;;2.20;;
19111;SDS011;9688;51.906;8.376;2023-12-28T09:36:23;2.17;;;1.87;;
19111;SDS011;9688;51.906;8.376;2023-12-28T09:39:11;4.57;;;1.63;;
19111;SDS011;9688;51.906;8.376;2023-12-28T09:41:59;3.50;;;1.80;;
19111;SDS011;9688;51.906;8.376;2023-12-28T09:44:49;4.10;;;2.00;;
19111;SDS011;9688;51.906;8.376;2023-12-28T09:47:35;4.37;;;2.10;;
19111;SDS011;9688;51.906;8.376;2023-12-28T09:50:21;2.90;;;2.00;;
19111;SDS011;9688;51.906;8.376;2023-12-28T09:53:11;2.40;;;1.80;;
19111;SDS011;9688;51.906;8.376;2023-12-28T09:55:59;5.03;;;2.13;;
19111;SDS011;9688;51.906;8.376;2023-12-28T09:58:46;4.13;;;1.80;;
19111;SDS011;9688;51.906;8.376;2023-12-28T10:01:35;6.30;;;2.03;;
19111;SDS011;9688;51.906;8.376;2023-12-28T10:04:21;5.50;;;1.70;;
19111;SDS011;9688;51.906;8.376;2023-12-28T10:07:07;2.87;;;1.67;;
19111;SDS011;9688;51.906;8.376;2023-12-28T10:09:53;2.77;;;1.90;;
19111;SDS011;9688;51.906;8.376;2023-12-28T10:12:40;5.53;;;2.07;;
19111;SDS011;9688;51.906;8.376;2023-12-28T10:15:25;3.10;;;2.20;;
19111;SDS011;9688;51.906;8.376;2023-12-28T10:18:12;2.50;;;1.77;;
19111;SDS011;9688;51.906;8.376;2023-12-28T10:20:57;4.20;;;2.10;;
19111;SDS011;9688;51.906;8.376;2023-12-28T10:23:43;4.60;;;2.10;;
19111;SDS011;9688;51.906;8.376;2023-12-28T10:26:29;3.40;;;1.73;;
19111;SDS011;9688;51.906;8.376;2023-12-28T10:29:16;5.90;;;2.30;;
19111;SDS011;9688;51.906;8.376;2023-12-28T10:32:03;8.33;;;1.90;;
19111;SDS011;9688;51.906;8.376;2023-12-28T10:34:51;10.33;;;2.20;;
19111;SDS011;9688;51.906;8.376;2023-12-28T10:37:37;7.73;;;2.23;;
19111;SDS011;9688;51.906;8.376;2023-12-28T10:40:26;3.43;;;2.27;;
19111;SDS011;9688;51.906;8.376;2023-12-28T10:43:15;7.53;;;1.90;;
19111;SDS011;9688;51.906;8.376;2023-12-28T10:46:02;5.10;;;2.03;;
19111;SDS011;9688;51.906;8.376;2023-12-28T10:48:49;6.10;;;2.20;;
19111;SDS011;9688;51.906;8.376;2023-12-28T10:51:44;7.63;;;1.93;;
19111;SDS011;9688;51.906;8.376;2023-12-28T10:54:39;9.03;;;2.03;;
19111;SDS011;9688;51.906;8.376;2023-12-28T10:57:30;6.83;;;2.20;;
19111;SDS011;9688;51.906;8.376;2023-12-28T11:00:24;5.50;;;2.20;;
19111;SDS011;9688;51.906;8.376;2023-12-28T11:03:17;6.50;;;2.13;;
19111;SDS011;9688;51.906;8.376;2023-12-28T11:06:07;9.93;;;2.83;;
19111;SDS011;9688;51.906;8.376;2023-12-28T11:08:54;7.87;;;2.13;;
19111;SDS011;9688;51.906;8.376;2023-12-28T11:11:41;7.97;;;2.17;;
19111;SDS011;9688;51.906;8.376;2023-12-28T11:14:29;4.00;;;1.90;;
19111;SDS011;9688;51.906;8.376;2023-12-28T11:17:17;8.37;;;2.27;;
19111;SDS011;9688;51.906;8.376;2023-12-28T11:20:06;5.63;;;2.57;;
19111;SDS011;9688;51.906;8.376;2023-12-28T11:22:54;8.27;;;2.10;;
19111;SDS011;9688;51.906;8.376;2023-12-28T11:25:42;6.13;;;2.20;;
19111;SDS011;9688;51.906;8.376;2023-12-28T11:28:27;5.67;;;2.40;;
19111;SDS011;9688;51.906;8.376;2023-12-28T11:31:14;7.13;;;2.37;;
19111;SDS011;9688;51.906;8.376;2023-12-28T11:34:00;6.33;;;2.00;;
19111;SDS011;9688;51.906;8.376;2023-12-28T11:36:48;4.80;;;2.50;;
19111;SDS011;9688;51.906;8.376;2023-12-28T11:39:36;8.30;;;1.90;;
19111;SDS011;9688;51.906;8.376;2023-12-28T11:42:23;6.03;;;1.80;;
19111;SDS011;9688;51.906;8.376;2023-12-28T11:45:08;9.17;;;2.33;;
19111;SDS011;9688;51.906;8.376;2023-12-28T11:47:59;6.80;;;2.43;;
19111;SDS011;9688;51.906;8.376;2023-12-28T11:50:46;7.17;;;2.20;;
19111;SDS011;9688;51.906;8.376;2023-12-28T11:53:35;9.87;;;2.40;;
19111;SDS011;9688;51.906;8.376;2023-12-28T11:56:21;3.50;;;1.93;;
19111;SDS011;9688;51.906;8.376;2023-12-28T11:59:07;5.00;;;2.07;;
19111;SDS011;9688;51.906;8.376;2023-12-28T12:01:55;7.67;;;2.30;;
19111;SDS011;9688;51.906;8.376;2023-12-28T12:04:40;7.33;;;2.40;;
19111;SDS011;9688;51.906;8.376;2023-12-28T12:07:28;4.23;;;1.97;;
19111;SDS011;9688;51.906;8.376;2023-12-28T12:10:17;6.47;;;2.40;;
19111;SDS011;9688;51.906;8.376;2023-12-28T12:13:02;11.17;;;2.33;;
19111;SDS011;9688;51.906;8.376;2023-12-28T12:15:50;4.40;;;2.23;;
19111;SDS011;9688;51.906;8.376;2023-12-28T12:18:36;4.87;;;2.17;;
19111;SDS011;9688;51.906;8.376;2023-12-28T12:21:23;5.77;;;2.00;;
19111;SDS011;9688;51.906;8.376;2023-12-28T12:24:09;10.00;;;3.03;;
19111;SDS011;9688;51.906;8.376;2023-12-28T12:26:57;5.17;;;1.80;;
19111;SDS011;9688;51.906;8.376;2023-12-28T12:29:45;4.43;;;2.10;;
19111;SDS011;9688;51.906;8.376;2023-12-28T12:32:31;7.93;;;2.03;;
19111;SDS011;9688;51.906;8.376;2023-12-28T12:35:17;7.57;;;2.17;;
19111;SDS011;9688;51.906;8.376;2023-12-28T12:38:05;5.97;;;1.90;;
19111;SDS011;9688;51.906;8.376;2023-12-28T12:40:52;5.53;;;2.00;;
19111;SDS011;9688;51.906;8.376;2023-12-28T12:43:41;4.93;;;2.03;;
19111;SDS011;9688;51.906;8.376;2023-12-28T12:46:27;11.00;;;2.10;;
19111;SDS011;9688;51.906;8.376;2023-12-28T12:49:13;4.97;;;2.10;;
19111;SDS011;9688;51.906;8.376;2023-12-28T12:52:00;9.70;;;2.20;;
19111;SDS011;9688;51.906;8.376;2023-12-28T12:54:52;6.10;;;2.00;;
19111;SDS011;9688;51.906;8.376;2023-12-28T12:57:39;8.27;;;1.90;;
19111;SDS011;9688;51.906;8.376;2023-12-28T13:00:27;6.47;;;2.30;;
19111;SDS011;9688;51.906;8.376;2023-12-28T13:03:13;4.70;;;1.97;;
19111;SDS011;9688;51.906;8.376;2023-12-28T13:05:59;3.93;;;1.70;;
19111;SDS011;9688;51.906;8.376;2023-12-28T13:08:47;5.80;;;2.10;;
19111;SDS011;9688;51.906;8.376;2023-12-28T13:11:34;7.60;;;2.20;;
19111;SDS011;9688;51.906;8.376;2023-12-28T13:14:20;6.63;;;3.07;;
19111;SDS011;9688;51.906;8.376;2023-12-28T13:17:08;4.73;;;2.10;;
19111;SDS011;9688;51.906;8.376;2023-12-28T13:19:54;6.93;;;2.27;;
19111;SDS011;9688;51.906;8.376;2023-12-28T13:22:40;4.40;;;1.97;;
19111;SDS011;9688;51.906;8.376;2023-12-28T13:25:25;6.87;;;2.30;;
19111;SDS011;9688;51.906;8.376;2023-12-28T13:28:11;9.60;;;2.23;;
19111;SDS011;9688;51.906;8.376;2023-12-28T13:30:59;8.67;;;1.87;;
19111;SDS011;9688;51.906;8.376;2023-12-28T13:33:47;4.53;;;2.00;;
19111;SDS011;9688;51.906;8.376;2023-12-28T13:36:32;6.07;;;2.03;;
19111;SDS011;9688;51.906;8.376;2023-12-28T13:39:19;7.57;;;2.47;;
19111;SDS011;9688;51.906;8.376;2023-12-28T13:42:06;8.00;;;2.40;;
19111;SDS011;9688;51.906;8.376;2023-12-28T13:44:52;4.87;;;2.20;;
19111;SDS011;9688;51.906;8.376;2023-12-28T13:47:38;7.30;;;2.33;;
19111;SDS011;9688;51.906;8.376;2023-12-28T13:50:25;7.37;;;2.00;;
19111;SDS011;9688;51.906;8.376;2023-12-28T13:53:11;8.10;;;2.43;;
19111;SDS011;9688;51.906;8.376;2023-12-28T13:55:58;9.53;;;2.10;;
19111;SDS011;9688;51.906;8.376;2023-12-28T13:58:44;9.57;;;2.10;;
19111;SDS011;9688;51.906;8.376;2023-12-28T14:01:30;10.00;;;2.47;;
19111;SDS011;9688;51.906;8.376;2023-12-28T14:04:18;8.07;;;2.23;;
19111;SDS011;9688;51.906;8.376;2023-12-28T14:07:05;6.80;;;1.90;;
19111;SDS011;9688;51.906;8.376;2023-12-28T14:09:51;9.70;;;2.57;;
19111;SDS011;9688;51.906;8.376;2023-12-28T14:12:38;6.37;;;2.30;;
19111;SDS011;9688;51.906;8.376;2023-12-28T14:15:23;8.53;;;2.10;;
19111;SDS011;9688;51.906;8.376;2023-12-28T14:18:10;10.70;;;2.20;;
19111;SDS011;9688;51.906;8.376;2023-12-28T14:20:58;7.43;;;2.20;;
19111;SDS011;9688;51.906;8.376;2023-12-28T14:23:46;10.67;;;2.33;;
19111;SDS011;9688;51.906;8.376;2023-12-28T14:26:32;5.33;;;1.47;;
19111;SDS011;9688;51.906;8.376;2023-12-28T14:29:18;7.07;;;2.47;;
19111;SDS011;9688;51.906;8.376;2023-12-28T14:32:07;7.00;;;2.00;;
19111;SDS011;9688;51.906;8.376;2023-12-28T14:34:54;7.53;;;2.20;;
19111;SDS011;9688;51.906;8.376;2023-12-28T14:37:40;7.60;;;2.50;;
19111;SDS011;9688;51.906;8.376;2023-12-28T14:40:27;9.23;;;2.00;;
19111;SDS011;9688;51.906;8.376;2023-12-28T14:43:13;6.53;;;2.00;;
19111;SDS011;9688;51.906;8.376;2023-12-28T14:45:58;2.93;;;1.80;;
19111;SDS011;9688;51.906;8.376;2023-12-28T14:48:44;8.23;;;2.00;;
19111;SDS011;9688;51.906;8.376;2023-12-28T14:51:31;5.83;;;1.70;;
19111;SDS011;9688;51.906;8.376;2023-12-28T14:54:17;5.40;;;2.10;;
19111;SDS011;9688;51.906;8.376;2023-12-28T14:57:04;7.47;;;2.03;;
19111;SDS011;9688;51.906;8.376;2023-12-28T14:59:50;11.20;;;2.03;;
19111;SDS011;9688;51.906;8.376;2023-12-28T15:02:36;4.73;;;2.37;;
19111;SDS011;9688;51.906;8.376;2023-12-28T15:05:21;5.83;;;2.03;;
19111;SDS011;9688;51.906;8.376;2023-12-28T15:08:08;9.00;;;3.80;;
19111;SDS011;9688;51.906;8.376;2023-12-28T15:10:54;3.30;;;1.67;;
19111;SDS011;9688;51.906;8.376;2023-12-28T15:13:42;6.50;;;2.03;;
19111;SDS011;9688;51.906;8.376;2023-12-28T15:16:28;6.97;;;1.90;;
19111;SDS011;9688;51.906;8.376;2023-12-28T15:19:17;5.83;;;2.10;;
19111;SDS011;9688;51.906;8.376;2023-12-28T15:22:05;10.17;;;2.13;;
19111;SDS011;9688;51.906;8.376;2023-12-28T15:24:51;8.20;;;2.10;;
19111;SDS011;9688;51.906;8.376;2023-12-28T15:27:37;5.67;;;2.20;;
19111;SDS011;9688;51.906;8.376;2023-12-28T15:30:25;7.80;;;2.43;;
19111;SDS011;9688;51.906;8.376;2023-12-28T15:33:11;7.53;;;1.97;;
19111;SDS011;9688;51.906;8.376;2023-12-28T15:35:57;4.37;;;1.97;;
19111;SDS011;9688;51.906;8.376;2023-12-28T15:38:43;8.43;;;2.43;;
19111;SDS011;9688;51.906;8.376;2023-12-28T15:41:29;6.27;;;1.80;;
19111;SDS011;9688;51.906;8.376;2023-12-28T15:44:15;3.40;;;2.43;;
19111;SDS011;9688;51.906;8.376;2023-12-28T15:47:03;5.60;;;1.87;;
19111;SDS011;9688;51.906;8.376;2023-12-28T15:49:49;9.93;;;2.20;;
19111;SDS011;9688;51.906;8.376;2023-12-28T15:52:34;7.30;;;2.07;;
19111;SDS011;9688;51.906;8.376;2023-12-28T15:55:22;8.23;;;1.90;;
19111;SDS011;9688;51.906;8.376;2023-12-28T15:58:08;5.20;;;1.90;;
19111;SDS011;9688;51.906;8.376;2023-12-28T16:00:56;4.30;;;1.80;;
19111;SDS011;9688;51.906;8.376;2023-12-28T16:03:44;4.43;;;2.00;;
19111;SDS011;9688;51.906;8.376;2023-12-28T16:06:31;9.13;;;2.10;;
19111;SDS011;9688;51.906;8.376;2023-12-28T16:09:17;4.90;;;1.80;;
19111;SDS011;9688;51.906;8.376;2023-12-28T16:12:05;7.67;;;2.47;;
19111;SDS011;9688;51.906;8.376;2023-12-28T16:14:54;8.70;;;2.40;;
19111;SDS011;9688;51.906;8.376;2023-12-28T16:17:40;7.93;;;2.17;;
19111;SDS011;9688;51.906;8.376;2023-12-28T16:20:28;6.13;;;2.30;;
19111;SDS011;9688;51.906;8.376;2023-12-28T16:23:15;4.50;;;2.40;;
19111;SDS011;9688;51.906;8.376;2023-12-28T16:26:01;5.30;;;2.17;;
19111;SDS011;9688;51.906;8.376;2023-12-28T16:28:48;8.00;;;2.40;;
19111;SDS011;9688;51.906;8.376;2023-12-28T16:31:37;7.90;;;1.90;;
19111;SDS011;9688;51.906;8.376;2023-12-28T16:34:23;6.47;;;2.00;;
19111;SDS011;9688;51.906;8.376;2023-12-28T16:37:10;10.53;;;2.67;;
19111;SDS011;9688;51.906;8.376;2023-12-28T16:39:56;8.33;;;2.00;;
19111;SDS011;9688;51.906;8.376;2023-12-28T16:42:42;7.27;;;2.03;;
19111;SDS011;9688;51.906;8.376;2023-12-28T16:45:28;4.57;;;2.40;;
19111;SDS011;9688;51.906;8.376;2023-12-28T16:48:14;7.77;;;2.07;;
19111;SDS011;9688;51.906;8.376;2023-12-28T16:51:00;5.80;;;1.73;;
19111;SDS011;9688;51.906;8.376;2023-12-28T16:53:48;7.60;;;2.23;;
19111;SDS011;9688;51.906;8.376;2023-12-28T16:56:34;8.33;;;2.77;;
19111;SDS011;9688;51.906;8.376;2023-12-28T16:59:21;8.73;;;2.73;;